Ellenwood, Georgia
Current Conditions -  °F | °C
As of 7:52 AM on Friday 19 Dec 2014 (Local Time) from KATL Reporting Station
Broken Clouds Broken Clouds  
Wind Chill: 33°   Ceiling: 20000
Heat Index: 38°   Visibility: 10mi
Dew Point: 32°   Wind: 6mph
Humidity: 79%   Direction: 300°WNW
Pressure: 30.15"   Gusts: NA
Location:  33.61°N, 84.29°W
Report Text: KATL 191252Z 30005KT 10SM BKN200 BKN250 03/00 A3015 RMK AO2 SLP215 T00330000
Loading
Personal Weather Stations






























Interactive Weather Map New forecast layout! Learn more

10-Day Weather Forecast

Advertisements
Track Severe Weather on mobile